sensor_id;sensor_type;location;lat;lon;timestamp;P1;durP1;ratioP1;P2;durP2;ratioP2
7493;SDS011;3788;49.902;8.590;2023-08-08T00:01:58;1.63;;;1.53;;
7493;SDS011;3788;49.902;8.590;2023-08-08T00:04:24;1.63;;;1.53;;
7493;SDS011;3788;49.902;8.590;2023-08-08T00:06:51;2.07;;;1.80;;
7493;SDS011;3788;49.902;8.590;2023-08-08T00:09:19;1.70;;;1.60;;
7493;SDS011;3788;49.902;8.590;2023-08-08T00:11:46;2.03;;;1.50;;
7493;SDS011;3788;49.902;8.590;2023-08-08T00:14:13;2.17;;;2.03;;
7493;SDS011;3788;49.902;8.590;2023-08-08T00:16:40;1.80;;;1.70;;
7493;SDS011;3788;49.902;8.590;2023-08-08T00:19:07;1.77;;;1.67;;
7493;SDS011;3788;49.902;8.590;2023-08-08T00:21:34;1.50;;;1.40;;
7493;SDS011;3788;49.902;8.590;2023-08-08T00:24:01;1.70;;;1.60;;
7493;SDS011;3788;49.902;8.590;2023-08-08T00:26:29;1.73;;;1.53;;
7493;SDS011;3788;49.902;8.590;2023-08-08T00:28:55;1.60;;;1.50;;
7493;SDS011;3788;49.902;8.590;2023-08-08T00:31:22;1.90;;;1.67;;
7493;SDS011;3788;49.902;8.590;2023-08-08T00:33:49;1.70;;;1.60;;
7493;SDS011;3788;49.902;8.590;2023-08-08T00:36:15;2.33;;;1.53;;
7493;SDS011;3788;49.902;8.590;2023-08-08T00:38:42;1.57;;;1.47;;
7493;SDS011;3788;49.902;8.590;2023-08-08T00:41:09;1.60;;;1.47;;
7493;SDS011;3788;49.902;8.590;2023-08-08T00:43:37;1.70;;;1.60;;
7493;SDS011;3788;49.902;8.590;2023-08-08T00:46:03;2.40;;;1.97;;
7493;SDS011;3788;49.902;8.590;2023-08-08T00:48:30;1.60;;;1.50;;
7493;SDS011;3788;49.902;8.590;2023-08-08T00:50:57;1.70;;;1.60;;
7493;SDS011;3788;49.902;8.590;2023-08-08T00:53:25;1.67;;;1.57;;
7493;SDS011;3788;49.902;8.590;2023-08-08T00:55:53;1.73;;;1.60;;
7493;SDS011;3788;49.902;8.590;2023-08-08T00:58:20;1.53;;;1.43;;
7493;SDS011;3788;49.902;8.590;2023-08-08T01:00:48;2.47;;;1.60;;
7493;SDS011;3788;49.902;8.590;2023-08-08T01:03:15;1.60;;;1.50;;
7493;SDS011;3788;49.902;8.590;2023-08-08T01:05:42;1.50;;;1.40;;
7493;SDS011;3788;49.902;8.590;2023-08-08T01:08:18;1.73;;;1.63;;
7493;SDS011;3788;49.902;8.590;2023-08-08T01:10:50;1.70;;;1.60;;
7493;SDS011;3788;49.902;8.590;2023-08-08T01:13:17;1.77;;;1.63;;
7493;SDS011;3788;49.902;8.590;2023-08-08T01:15:48;3.00;;;1.70;;
7493;SDS011;3788;49.902;8.590;2023-08-08T01:18:16;1.40;;;1.30;;
7493;SDS011;3788;49.902;8.590;2023-08-08T01:20:45;2.77;;;1.70;;
7493;SDS011;3788;49.902;8.590;2023-08-08T01:23:14;3.23;;;1.70;;
7493;SDS011;3788;49.902;8.590;2023-08-08T01:25:46;1.60;;;1.50;;
7493;SDS011;3788;49.902;8.590;2023-08-08T01:28:14;1.73;;;1.63;;
7493;SDS011;3788;49.902;8.590;2023-08-08T01:30:43;1.40;;;1.30;;
7493;SDS011;3788;49.902;8.590;2023-08-08T01:33:09;4.07;;;1.70;;
7493;SDS011;3788;49.902;8.590;2023-08-08T01:35:37;1.77;;;1.67;;
7493;SDS011;3788;49.902;8.590;2023-08-08T01:38:08;1.80;;;1.70;;
7493;SDS011;3788;49.902;8.590;2023-08-08T01:40:37;1.57;;;1.47;;
7493;SDS011;3788;49.902;8.590;2023-08-08T01:43:07;1.80;;;1.70;;
7493;SDS011;3788;49.902;8.590;2023-08-08T01:45:34;1.77;;;1.67;;
7493;SDS011;3788;49.902;8.590;2023-08-08T01:48:05;1.70;;;1.60;;
7493;SDS011;3788;49.902;8.590;2023-08-08T01:50:33;2.43;;;1.90;;
7493;SDS011;3788;49.902;8.590;2023-08-08T01:52:59;1.83;;;1.70;;
7493;SDS011;3788;49.902;8.590;2023-08-08T01:55:26;2.20;;;1.67;;
7493;SDS011;3788;49.902;8.590;2023-08-08T01:57:53;3.10;;;1.90;;
7493;SDS011;3788;49.902;8.590;2023-08-08T02:00:21;3.63;;;1.70;;
7493;SDS011;3788;49.902;8.590;2023-08-08T02:02:48;1.77;;;1.67;;
7493;SDS011;3788;49.902;8.590;2023-08-08T02:05:14;2.07;;;1.80;;
7493;SDS011;3788;49.902;8.590;2023-08-08T02:07:41;2.00;;;1.80;;
7493;SDS011;3788;49.902;8.590;2023-08-08T02:10:08;6.73;;;2.00;;
7493;SDS011;3788;49.902;8.590;2023-08-08T02:12:35;3.77;;;1.70;;
7493;SDS011;3788;49.902;8.590;2023-08-08T02:15:02;2.43;;;1.80;;
7493;SDS011;3788;49.902;8.590;2023-08-08T02:17:30;1.50;;;1.40;;
7493;SDS011;3788;49.902;8.590;2023-08-08T02:19:57;2.30;;;1.60;;
7493;SDS011;3788;49.902;8.590;2023-08-08T02:22:24;1.70;;;1.60;;
7493;SDS011;3788;49.902;8.590;2023-08-08T02:24:51;2.30;;;2.10;;
7493;SDS011;3788;49.902;8.590;2023-08-08T02:27:17;2.00;;;1.80;;
7493;SDS011;3788;49.902;8.590;2023-08-08T02:29:44;2.40;;;1.90;;
7493;SDS011;3788;49.902;8.590;2023-08-08T02:32:11;3.17;;;1.80;;
7493;SDS011;3788;49.902;8.590;2023-08-08T02:34:42;1.90;;;1.80;;
7493;SDS011;3788;49.902;8.590;2023-08-08T02:37:09;1.80;;;1.70;;
7493;SDS011;3788;49.902;8.590;2023-08-08T02:39:36;2.10;;;1.73;;
7493;SDS011;3788;49.902;8.590;2023-08-08T02:42:02;1.60;;;1.50;;
7493;SDS011;3788;49.902;8.590;2023-08-08T02:44:30;3.17;;;2.10;;
7493;SDS011;3788;49.902;8.590;2023-08-08T02:46:56;4.50;;;2.00;;
7493;SDS011;3788;49.902;8.590;2023-08-08T02:49:23;2.07;;;1.57;;
7493;SDS011;3788;49.902;8.590;2023-08-08T02:51:51;2.70;;;2.23;;
7493;SDS011;3788;49.902;8.590;2023-08-08T02:54:17;2.10;;;1.93;;
7493;SDS011;3788;49.902;8.590;2023-08-08T02:56:47;1.90;;;1.80;;
7493;SDS011;3788;49.902;8.590;2023-08-08T02:59:14;1.93;;;1.83;;
7493;SDS011;3788;49.902;8.590;2023-08-08T03:01:41;2.77;;;1.80;;
7493;SDS011;3788;49.902;8.590;2023-08-08T03:04:07;1.83;;;1.73;;
7493;SDS011;3788;49.902;8.590;2023-08-08T03:06:34;2.43;;;1.93;;
7493;SDS011;3788;49.902;8.590;2023-08-08T03:09:02;1.90;;;1.80;;
7493;SDS011;3788;49.902;8.590;2023-08-08T03:11:30;2.67;;;1.80;;
7493;SDS011;3788;49.902;8.590;2023-08-08T03:13:56;1.83;;;1.73;;
7493;SDS011;3788;49.902;8.590;2023-08-08T03:16:23;2.60;;;1.93;;
7493;SDS011;3788;49.902;8.590;2023-08-08T03:18:50;1.90;;;1.77;;
7493;SDS011;3788;49.902;8.590;2023-08-08T03:21:16;1.80;;;1.70;;
7493;SDS011;3788;49.902;8.590;2023-08-08T03:23:43;1.80;;;1.70;;
7493;SDS011;3788;49.902;8.590;2023-08-08T03:26:11;2.90;;;1.90;;
7493;SDS011;3788;49.902;8.590;2023-08-08T03:28:38;2.37;;;1.97;;
7493;SDS011;3788;49.902;8.590;2023-08-08T03:31:05;2.73;;;1.87;;
7493;SDS011;3788;49.902;8.590;2023-08-08T03:33:32;1.63;;;1.53;;
7493;SDS011;3788;49.902;8.590;2023-08-08T03:35:59;1.80;;;1.70;;
7493;SDS011;3788;49.902;8.590;2023-08-08T03:38:25;2.30;;;2.10;;
7493;SDS011;3788;49.902;8.590;2023-08-08T03:40:52;2.10;;;1.70;;
7493;SDS011;3788;49.902;8.590;2023-08-08T03:43:20;2.87;;;2.27;;
7493;SDS011;3788;49.902;8.590;2023-08-08T03:45:47;2.63;;;1.60;;
7493;SDS011;3788;49.902;8.590;2023-08-08T03:48:14;2.77;;;1.80;;
7493;SDS011;3788;49.902;8.590;2023-08-08T03:50:40;1.87;;;1.73;;
7493;SDS011;3788;49.902;8.590;2023-08-08T03:53:07;2.03;;;1.70;;
7493;SDS011;3788;49.902;8.590;2023-08-08T03:55:33;3.00;;;1.90;;
7493;SDS011;3788;49.902;8.590;2023-08-08T03:58:00;3.17;;;1.93;;
7493;SDS011;3788;49.902;8.590;2023-08-08T04:00:28;1.70;;;1.60;;
7493;SDS011;3788;49.902;8.590;2023-08-08T04:02:55;1.83;;;1.70;;
7493;SDS011;3788;49.902;8.590;2023-08-08T04:05:21;1.57;;;1.43;;
7493;SDS011;3788;49.902;8.590;2023-08-08T04:07:48;2.20;;;1.67;;
7493;SDS011;3788;49.902;8.590;2023-08-08T04:10:15;1.80;;;1.70;;
7493;SDS011;3788;49.902;8.590;2023-08-08T04:12:42;1.57;;;1.47;;
7493;SDS011;3788;49.902;8.590;2023-08-08T04:15:09;1.80;;;1.37;;
7493;SDS011;3788;49.902;8.590;2023-08-08T04:17:37;1.70;;;1.60;;
7493;SDS011;3788;49.902;8.590;2023-08-08T04:20:04;1.40;;;1.30;;
7493;SDS011;3788;49.902;8.590;2023-08-08T04:22:31;1.40;;;1.30;;
7493;SDS011;3788;49.902;8.590;2023-08-08T04:24:58;1.73;;;1.57;;
7493;SDS011;3788;49.902;8.590;2023-08-08T04:27:25;1.83;;;1.73;;
7493;SDS011;3788;49.902;8.590;2023-08-08T04:29:51;1.80;;;1.70;;
7493;SDS011;3788;49.902;8.590;2023-08-08T04:32:18;2.00;;;1.60;;
7493;SDS011;3788;49.902;8.590;2023-08-08T04:34:46;1.60;;;1.50;;
7493;SDS011;3788;49.902;8.590;2023-08-08T04:37:13;1.70;;;1.60;;
7493;SDS011;3788;49.902;8.590;2023-08-08T04:39:40;2.50;;;1.43;;
7493;SDS011;3788;49.902;8.590;2023-08-08T04:42:06;1.27;;;1.17;;
7493;SDS011;3788;49.902;8.590;2023-08-08T04:44:33;2.20;;;1.27;;
7493;SDS011;3788;49.902;8.590;2023-08-08T04:47:00;1.43;;;1.33;;
7493;SDS011;3788;49.902;8.590;2023-08-08T04:49:26;1.57;;;1.47;;
7493;SDS011;3788;49.902;8.590;2023-08-08T04:51:55;1.73;;;1.50;;
7493;SDS011;3788;49.902;8.590;2023-08-08T04:54:21;2.40;;;1.70;;
7493;SDS011;3788;49.902;8.590;2023-08-08T04:56:48;2.30;;;1.67;;
7493;SDS011;3788;49.902;8.590;2023-08-08T04:59:15;2.07;;;1.70;;
7493;SDS011;3788;49.902;8.590;2023-08-08T05:01:42;3.13;;;2.03;;
7493;SDS011;3788;49.902;8.590;2023-08-08T05:04:08;2.00;;;1.60;;
7493;SDS011;3788;49.902;8.590;2023-08-08T05:06:35;2.17;;;1.90;;
7493;SDS011;3788;49.902;8.590;2023-08-08T05:09:03;3.87;;;2.10;;
7493;SDS011;3788;49.902;8.590;2023-08-08T05:11:30;3.23;;;2.00;;
7493;SDS011;3788;49.902;8.590;2023-08-08T05:13:56;3.17;;;1.63;;
7493;SDS011;3788;49.902;8.590;2023-08-08T05:16:23;2.83;;;2.00;;
7493;SDS011;3788;49.902;8.590;2023-08-08T05:18:50;1.83;;;1.73;;
7493;SDS011;3788;49.902;8.590;2023-08-08T05:21:16;2.63;;;1.90;;
7493;SDS011;3788;49.902;8.590;2023-08-08T05:23:43;2.60;;;2.00;;
7493;SDS011;3788;49.902;8.590;2023-08-08T05:26:11;2.13;;;1.67;;
7493;SDS011;3788;49.902;8.590;2023-08-08T05:28:38;2.03;;;1.73;;
7493;SDS011;3788;49.902;8.590;2023-08-08T05:31:05;4.47;;;1.90;;
7493;SDS011;3788;49.902;8.590;2023-08-08T05:33:32;2.73;;;1.90;;
7493;SDS011;3788;49.902;8.590;2023-08-08T05:36:02;2.40;;;2.00;;
7493;SDS011;3788;49.902;8.590;2023-08-08T05:38:28;3.37;;;2.30;;
7493;SDS011;3788;49.902;8.590;2023-08-08T05:40:55;3.63;;;2.10;;
7493;SDS011;3788;49.902;8.590;2023-08-08T05:43:23;2.43;;;1.80;;
7493;SDS011;3788;49.902;8.590;2023-08-08T05:45:50;4.20;;;2.30;;
7493;SDS011;3788;49.902;8.590;2023-08-08T05:48:17;2.10;;;1.80;;
7493;SDS011;3788;49.902;8.590;2023-08-08T05:50:43;2.20;;;2.00;;
7493;SDS011;3788;49.902;8.590;2023-08-08T05:53:10;3.33;;;2.43;;
7493;SDS011;3788;49.902;8.590;2023-08-08T05:55:37;3.50;;;2.03;;
7493;SDS011;3788;49.902;8.590;2023-08-08T05:58:06;2.30;;;1.63;;
7493;SDS011;3788;49.902;8.590;2023-08-08T06:00:34;1.90;;;1.60;;
7493;SDS011;3788;49.902;8.590;2023-08-08T06:03:01;4.20;;;2.17;;
7493;SDS011;3788;49.902;8.590;2023-08-08T06:05:27;2.10;;;1.77;;
7493;SDS011;3788;49.902;8.590;2023-08-08T06:07:54;2.83;;;1.87;;
7493;SDS011;3788;49.902;8.590;2023-08-08T06:10:21;2.30;;;2.10;;
7493;SDS011;3788;49.902;8.590;2023-08-08T06:12:48;2.57;;;1.53;;
7493;SDS011;3788;49.902;8.590;2023-08-08T06:15:15;3.13;;;1.83;;
7493;SDS011;3788;49.902;8.590;2023-08-08T06:17:43;2.63;;;1.70;;
7493;SDS011;3788;49.902;8.590;2023-08-08T06:20:09;2.43;;;1.97;;
7493;SDS011;3788;49.902;8.590;2023-08-08T06:22:37;1.73;;;1.63;;
7493;SDS011;3788;49.902;8.590;2023-08-08T06:25:04;1.83;;;1.70;;
7493;SDS011;3788;49.902;8.590;2023-08-08T06:27:31;3.70;;;1.90;;
7493;SDS011;3788;49.902;8.590;2023-08-08T06:29:58;2.43;;;1.80;;
7493;SDS011;3788;49.902;8.590;2023-08-08T06:32:25;2.77;;;1.90;;
7493;SDS011;3788;49.902;8.590;2023-08-08T06:34:53;2.03;;;1.83;;
7493;SDS011;3788;49.902;8.590;2023-08-08T06:37:20;1.77;;;1.67;;
7493;SDS011;3788;49.902;8.590;2023-08-08T06:39:46;1.83;;;1.53;;
7493;SDS011;3788;49.902;8.590;2023-08-08T06:42:13;3.20;;;2.00;;
7493;SDS011;3788;49.902;8.590;2023-08-08T06:44:43;3.60;;;1.97;;
7493;SDS011;3788;49.902;8.590;2023-08-08T06:47:10;2.77;;;1.70;;
7493;SDS011;3788;49.902;8.590;2023-08-08T06:49:37;3.10;;;1.87;;
7493;SDS011;3788;49.902;8.590;2023-08-08T06:52:05;3.37;;;1.63;;
7493;SDS011;3788;49.902;8.590;2023-08-08T06:54:32;2.13;;;1.70;;
7493;SDS011;3788;49.902;8.590;2023-08-08T06:57:00;1.77;;;1.57;;
7493;SDS011;3788;49.902;8.590;2023-08-08T06:59:28;1.50;;;1.40;;
7493;SDS011;3788;49.902;8.590;2023-08-08T07:01:56;2.63;;;1.70;;
7493;SDS011;3788;49.902;8.590;2023-08-08T07:04:22;1.50;;;1.33;;
7493;SDS011;3788;49.902;8.590;2023-08-08T07:06:49;1.93;;;1.33;;
7493;SDS011;3788;49.902;8.590;2023-08-08T07:09:17;2.13;;;1.87;;
7493;SDS011;3788;49.902;8.590;2023-08-08T07:11:44;2.03;;;1.40;;
7493;SDS011;3788;49.902;8.590;2023-08-08T07:14:11;2.53;;;1.77;;
7493;SDS011;3788;49.902;8.590;2023-08-08T07:16:37;2.13;;;1.30;;
7493;SDS011;3788;49.902;8.590;2023-08-08T07:19:04;1.73;;;1.30;;
7493;SDS011;3788;49.902;8.590;2023-08-08T07:21:31;1.80;;;1.70;;
7493;SDS011;3788;49.902;8.590;2023-08-08T07:23:58;1.53;;;1.40;;
7493;SDS011;3788;49.902;8.590;2023-08-08T07:26:26;1.40;;;1.13;;
7493;SDS011;3788;49.902;8.590;2023-08-08T07:28:52;1.63;;;1.37;;
7493;SDS011;3788;49.902;8.590;2023-08-08T07:31:19;3.47;;;1.20;;
7493;SDS011;3788;49.902;8.590;2023-08-08T07:33:46;1.30;;;1.13;;
7493;SDS011;3788;49.902;8.590;2023-08-08T07:36:13;1.43;;;1.33;;
7493;SDS011;3788;49.902;8.590;2023-08-08T07:38:39;1.37;;;1.27;;
7493;SDS011;3788;49.902;8.590;2023-08-08T07:41:06;2.93;;;1.50;;
7493;SDS011;3788;49.902;8.590;2023-08-08T07:43:34;2.27;;;1.40;;
7493;SDS011;3788;49.902;8.590;2023-08-08T07:46:01;2.20;;;1.33;;
7493;SDS011;3788;49.902;8.590;2023-08-08T07:48:27;1.47;;;1.37;;
7493;SDS011;3788;49.902;8.590;2023-08-08T07:50:54;1.73;;;1.43;;
7493;SDS011;3788;49.902;8.590;2023-08-08T07:53:21;2.70;;;1.30;;
7493;SDS011;3788;49.902;8.590;2023-08-08T07:55:48;1.63;;;1.37;;
7493;SDS011;3788;49.902;8.590;2023-08-08T07:58:14;2.90;;;1.47;;
7493;SDS011;3788;49.902;8.590;2023-08-08T08:00:42;2.10;;;1.30;;
7493;SDS011;3788;49.902;8.590;2023-08-08T08:03:09;1.40;;;1.27;;
7493;SDS011;3788;49.902;8.590;2023-08-08T08:05:36;1.67;;;1.10;;
7493;SDS011;3788;49.902;8.590;2023-08-08T08:08:03;1.30;;;1.20;;
7493;SDS011;3788;49.902;8.590;2023-08-08T08:10:30;1.97;;;1.40;;
7493;SDS011;3788;49.902;8.590;2023-08-08T08:12:57;2.00;;;1.10;;
7493;SDS011;3788;49.902;8.590;2023-08-08T08:15:23;2.60;;;1.20;;
7493;SDS011;3788;49.902;8.590;2023-08-08T08:17:51;1.10;;;1.00;;
7493;SDS011;3788;49.902;8.590;2023-08-08T08:20:18;2.47;;;1.10;;
7493;SDS011;3788;49.902;8.590;2023-08-08T08:22:45;1.50;;;1.00;;
7493;SDS011;3788;49.902;8.590;2023-08-08T08:25:13;1.00;;;0.93;;
7493;SDS011;3788;49.902;8.590;2023-08-08T08:27:40;1.90;;;1.40;;
7493;SDS011;3788;49.902;8.590;2023-08-08T08:30:07;1.10;;;1.00;;
7493;SDS011;3788;49.902;8.590;2023-08-08T08:32:35;2.17;;;1.37;;
7493;SDS011;3788;49.902;8.590;2023-08-08T08:35:05;1.37;;;1.17;;
7493;SDS011;3788;49.902;8.590;2023-08-08T08:37:32;1.00;;;1.00;;
7493;SDS011;3788;49.902;8.590;2023-08-08T08:39:59;1.90;;;1.00;;
7493;SDS011;3788;49.902;8.590;2023-08-08T08:42:29;2.20;;;0.90;;
7493;SDS011;3788;49.902;8.590;2023-08-08T08:44:58;1.20;;;1.10;;
7493;SDS011;3788;49.902;8.590;2023-08-08T08:47:25;1.27;;;1.00;;
7493;SDS011;3788;49.902;8.590;2023-08-08T08:49:54;1.57;;;1.20;;
7493;SDS011;3788;49.902;8.590;2023-08-08T08:52:24;2.57;;;1.17;;
7493;SDS011;3788;49.902;8.590;2023-08-08T08:54:51;0.80;;;0.73;;
7493;SDS011;3788;49.902;8.590;2023-08-08T08:57:18;1.03;;;0.90;;
7493;SDS011;3788;49.902;8.590;2023-08-08T08:59:45;1.13;;;0.90;;
7493;SDS011;3788;49.902;8.590;2023-08-08T09:02:12;1.73;;;0.90;;
7493;SDS011;3788;49.902;8.590;2023-08-08T09:04:39;1.60;;;0.93;;
7493;SDS011;3788;49.902;8.590;2023-08-08T09:07:06;1.47;;;0.93;;
7493;SDS011;3788;49.902;8.590;2023-08-08T09:09:34;1.73;;;1.10;;
7493;SDS011;3788;49.902;8.590;2023-08-08T09:12:03;1.00;;;0.90;;
7493;SDS011;3788;49.902;8.590;2023-08-08T09:14:31;2.40;;;0.90;;
7493;SDS011;3788;49.902;8.590;2023-08-08T09:16:58;1.93;;;1.10;;
7493;SDS011;3788;49.902;8.590;2023-08-08T09:19:24;2.07;;;1.17;;
7493;SDS011;3788;49.902;8.590;2023-08-08T09:21:52;1.00;;;1.00;;
7493;SDS011;3788;49.902;8.590;2023-08-08T09:24:19;1.17;;;1.07;;
7493;SDS011;3788;49.902;8.590;2023-08-08T09:26:47;1.20;;;1.10;;
7493;SDS011;3788;49.902;8.590;2023-08-08T09:29:14;1.33;;;0.93;;
7493;SDS011;3788;49.902;8.590;2023-08-08T09:31:41;1.40;;;1.20;;
7493;SDS011;3788;49.902;8.590;2023-08-08T09:34:08;2.10;;;0.90;;
7493;SDS011;3788;49.902;8.590;2023-08-08T09:36:35;1.13;;;0.93;;
7493;SDS011;3788;49.902;8.590;2023-08-08T09:39:02;1.23;;;1.00;;
7493;SDS011;3788;49.902;8.590;2023-08-08T09:41:30;1.67;;;1.10;;
7493;SDS011;3788;49.902;8.590;2023-08-08T09:43:58;3.27;;;0.90;;
7493;SDS011;3788;49.902;8.590;2023-08-08T09:46:25;1.83;;;1.07;;
7493;SDS011;3788;49.902;8.590;2023-08-08T09:48:55;1.40;;;1.00;;
7493;SDS011;3788;49.902;8.590;2023-08-08T09:51:22;1.70;;;0.90;;
7493;SDS011;3788;49.902;8.590;2023-08-08T09:53:49;1.83;;;1.10;;
7493;SDS011;3788;49.902;8.590;2023-08-08T09:56:16;1.33;;;1.17;;
7493;SDS011;3788;49.902;8.590;2023-08-08T09:58:44;1.57;;;1.10;;
7493;SDS011;3788;49.902;8.590;2023-08-08T10:01:13;2.23;;;1.20;;
7493;SDS011;3788;49.902;8.590;2023-08-08T10:03:41;1.30;;;1.00;;
7493;SDS011;3788;49.902;8.590;2023-08-08T10:06:08;3.77;;;1.30;;
7493;SDS011;3788;49.902;8.590;2023-08-08T10:08:35;1.43;;;1.33;;
7493;SDS011;3788;49.902;8.590;2023-08-08T10:11:02;0.93;;;0.87;;
7493;SDS011;3788;49.902;8.590;2023-08-08T10:13:31;2.13;;;1.20;;
7493;SDS011;3788;49.902;8.590;2023-08-08T10:15:58;1.57;;;0.97;;
7493;SDS011;3788;49.902;8.590;2023-08-08T10:18:35;2.33;;;1.03;;
7493;SDS011;3788;49.902;8.590;2023-08-08T10:21:03;1.87;;;1.07;;
7493;SDS011;3788;49.902;8.590;2023-08-08T10:23:35;2.67;;;1.10;;
7493;SDS011;3788;49.902;8.590;2023-08-08T10:26:02;1.70;;;1.33;;
7493;SDS011;3788;49.902;8.590;2023-08-08T10:28:29;3.17;;;1.30;;
7493;SDS011;3788;49.902;8.590;2023-08-08T10:30:59;1.87;;;1.37;;
7493;SDS011;3788;49.902;8.590;2023-08-08T10:33:39;3.20;;;1.40;;
7493;SDS011;3788;49.902;8.590;2023-08-08T10:36:08;3.40;;;1.20;;
7493;SDS011;3788;49.902;8.590;2023-08-08T10:38:39;1.77;;;1.20;;
7493;SDS011;3788;49.902;8.590;2023-08-08T10:41:08;1.43;;;1.17;;
7493;SDS011;3788;49.902;8.590;2023-08-08T10:43:37;1.77;;;1.20;;
7493;SDS011;3788;49.902;8.590;2023-08-08T10:46:04;1.10;;;1.00;;
7493;SDS011;3788;49.902;8.590;2023-08-08T10:48:30;1.27;;;1.00;;
7493;SDS011;3788;49.902;8.590;2023-08-08T10:50:59;1.97;;;1.20;;
7493;SDS011;3788;49.902;8.590;2023-08-08T10:53:26;1.53;;;1.00;;
7493;SDS011;3788;49.902;8.590;2023-08-08T10:55:57;1.83;;;1.10;;
7493;SDS011;3788;49.902;8.590;2023-08-08T10:58:34;1.63;;;1.00;;
7493;SDS011;3788;49.902;8.590;2023-08-08T11:01:02;1.57;;;1.40;;
7493;SDS011;3788;49.902;8.590;2023-08-08T11:03:32;1.60;;;1.30;;
7493;SDS011;3788;49.902;8.590;2023-08-08T11:06:02;2.10;;;1.30;;
7493;SDS011;3788;49.902;8.590;2023-08-08T11:08:29;0.90;;;0.87;;
7493;SDS011;3788;49.902;8.590;2023-08-08T11:10:57;1.23;;;1.13;;
7493;SDS011;3788;49.902;8.590;2023-08-08T11:13:24;1.40;;;1.30;;
7493;SDS011;3788;49.902;8.590;2023-08-08T11:15:51;1.67;;;1.40;;
7493;SDS011;3788;49.902;8.590;2023-08-08T11:18:18;1.70;;;1.40;;
7493;SDS011;3788;49.902;8.590;2023-08-08T11:20:45;1.60;;;1.00;;
7493;SDS011;3788;49.902;8.590;2023-08-08T11:23:13;1.57;;;1.20;;
7493;SDS011;3788;49.902;8.590;2023-08-08T11:25:40;1.97;;;1.30;;
7493;SDS011;3788;49.902;8.590;2023-08-08T11:28:08;2.00;;;1.30;;
7493;SDS011;3788;49.902;8.590;2023-08-08T11:30:37;2.87;;;1.40;;
7493;SDS011;3788;49.902;8.590;2023-08-08T11:33:04;2.90;;;0.90;;
7493;SDS011;3788;49.902;8.590;2023-08-08T11:35:32;2.37;;;1.23;;
7493;SDS011;3788;49.902;8.590;2023-08-08T11:37:59;1.70;;;1.40;;
7493;SDS011;3788;49.902;8.590;2023-08-08T11:40:30;3.30;;;1.40;;
7493;SDS011;3788;49.902;8.590;2023-08-08T11:42:58;2.03;;;1.30;;
7493;SDS011;3788;49.902;8.590;2023-08-08T11:45:25;1.63;;;1.07;;
7493;SDS011;3788;49.902;8.590;2023-08-08T11:47:53;1.80;;;1.37;;
7493;SDS011;3788;49.902;8.590;2023-08-08T11:50:21;1.30;;;1.13;;
7493;SDS011;3788;49.902;8.590;2023-08-08T11:52:50;1.77;;;1.43;;
7493;SDS011;3788;49.902;8.590;2023-08-08T11:55:17;2.80;;;1.10;;
7493;SDS011;3788;49.902;8.590;2023-08-08T11:57:48;1.10;;;1.00;;
7493;SDS011;3788;49.902;8.590;2023-08-08T12:00:16;1.57;;;1.20;;
7493;SDS011;3788;49.902;8.590;2023-08-08T12:02:43;1.83;;;1.20;;
7493;SDS011;3788;49.902;8.590;2023-08-08T12:05:12;1.43;;;1.00;;
7493;SDS011;3788;49.902;8.590;2023-08-08T12:07:42;1.47;;;1.30;;
7493;SDS011;3788;49.902;8.590;2023-08-08T12:10:13;1.43;;;1.17;;
7493;SDS011;3788;49.902;8.590;2023-08-08T12:12:42;1.37;;;1.27;;
7493;SDS011;3788;49.902;8.590;2023-08-08T12:15:11;1.47;;;1.20;;
7493;SDS011;3788;49.902;8.590;2023-08-08T12:17:38;1.67;;;1.30;;
7493;SDS011;3788;49.902;8.590;2023-08-08T12:20:06;1.30;;;1.10;;
7493;SDS011;3788;49.902;8.590;2023-08-08T12:22:34;2.63;;;1.23;;
7493;SDS011;3788;49.902;8.590;2023-08-08T12:25:01;1.83;;;1.20;;
7493;SDS011;3788;49.902;8.590;2023-08-08T12:27:29;1.50;;;1.40;;
7493;SDS011;3788;49.902;8.590;2023-08-08T12:29:56;2.47;;;1.80;;
7493;SDS011;3788;49.902;8.590;2023-08-08T12:32:25;1.97;;;1.20;;
7493;SDS011;3788;49.902;8.590;2023-08-08T12:34:53;1.47;;;1.23;;
7493;SDS011;3788;49.902;8.590;2023-08-08T12:37:20;2.43;;;1.20;;
7493;SDS011;3788;49.902;8.590;2023-08-08T12:39:48;2.50;;;1.37;;
7493;SDS011;3788;49.902;8.590;2023-08-08T12:42:15;1.47;;;1.10;;
7493;SDS011;3788;49.902;8.590;2023-08-08T12:44:42;1.90;;;1.43;;
7493;SDS011;3788;49.902;8.590;2023-08-08T12:47:08;2.43;;;1.30;;
7493;SDS011;3788;49.902;8.590;2023-08-08T12:49:36;1.33;;;1.23;;
7493;SDS011;3788;49.902;8.590;2023-08-08T12:52:03;3.63;;;1.23;;
7493;SDS011;3788;49.902;8.590;2023-08-08T12:54:30;1.33;;;1.23;;
7493;SDS011;3788;49.902;8.590;2023-08-08T12:56:57;1.70;;;1.40;;
7493;SDS011;3788;49.902;8.590;2023-08-08T12:59:24;1.40;;;1.20;;
7493;SDS011;3788;49.902;8.590;2023-08-08T13:01:50;1.43;;;1.07;;
7493;SDS011;3788;49.902;8.590;2023-08-08T13:04:17;2.27;;;1.20;;
7493;SDS011;3788;49.902;8.590;2023-08-08T13:06:45;1.37;;;1.10;;
7493;SDS011;3788;49.902;8.590;2023-08-08T13:09:13;1.50;;;1.20;;
7493;SDS011;3788;49.902;8.590;2023-08-08T13:11:40;2.13;;;1.40;;
7493;SDS011;3788;49.902;8.590;2023-08-08T13:14:07;2.13;;;1.23;;
7493;SDS011;3788;49.902;8.590;2023-08-08T13:16:33;1.50;;;1.17;;
7493;SDS011;3788;49.902;8.590;2023-08-08T13:19:00;1.40;;;1.30;;
7493;SDS011;3788;49.902;8.590;2023-08-08T13:21:28;1.90;;;1.17;;
7493;SDS011;3788;49.902;8.590;2023-08-08T13:23:56;0.90;;;0.90;;
7493;SDS011;3788;49.902;8.590;2023-08-08T13:26:23;1.40;;;1.30;;
7493;SDS011;3788;49.902;8.590;2023-08-08T13:28:50;1.23;;;1.10;;
7493;SDS011;3788;49.902;8.590;2023-08-08T13:31:16;1.33;;;1.20;;
7493;SDS011;3788;49.902;8.590;2023-08-08T13:33:44;1.00;;;1.00;;
7493;SDS011;3788;49.902;8.590;2023-08-08T13:36:10;1.20;;;1.10;;
7493;SDS011;3788;49.902;8.590;2023-08-08T13:38:37;1.37;;;1.27;;
7493;SDS011;3788;49.902;8.590;2023-08-08T13:41:05;1.40;;;1.30;;
7493;SDS011;3788;49.902;8.590;2023-08-08T13:43:31;1.30;;;1.00;;
7493;SDS011;3788;49.902;8.590;2023-08-08T13:45:59;1.83;;;1.30;;
7493;SDS011;3788;49.902;8.590;2023-08-08T13:48:28;1.20;;;1.10;;
7493;SDS011;3788;49.902;8.590;2023-08-08T13:50:54;3.03;;;1.60;;
7493;SDS011;3788;49.902;8.590;2023-08-08T13:53:22;1.60;;;1.20;;
7493;SDS011;3788;49.902;8.590;2023-08-08T13:55:48;3.17;;;1.00;;
7493;SDS011;3788;49.902;8.590;2023-08-08T13:58:16;1.30;;;1.10;;
7493;SDS011;3788;49.902;8.590;2023-08-08T14:00:46;2.10;;;1.10;;
7493;SDS011;3788;49.902;8.590;2023-08-08T14:03:13;1.77;;;1.07;;
7493;SDS011;3788;49.902;8.590;2023-08-08T14:05:40;2.73;;;1.20;;
7493;SDS011;3788;49.902;8.590;2023-08-08T14:08:07;0.93;;;0.80;;
7493;SDS011;3788;49.902;8.590;2023-08-08T14:10:34;1.43;;;1.33;;
7493;SDS011;3788;49.902;8.590;2023-08-08T14:13:01;1.60;;;1.30;;
7493;SDS011;3788;49.902;8.590;2023-08-08T14:15:29;1.67;;;1.20;;
7493;SDS011;3788;49.902;8.590;2023-08-08T14:17:55;1.83;;;1.30;;
7493;SDS011;3788;49.902;8.590;2023-08-08T14:20:22;1.53;;;1.00;;
7493;SDS011;3788;49.902;8.590;2023-08-08T14:22:52;1.07;;;0.97;;
7493;SDS011;3788;49.902;8.590;2023-08-08T14:25:19;1.40;;;1.30;;
7493;SDS011;3788;49.902;8.590;2023-08-08T14:27:46;1.43;;;1.10;;
7493;SDS011;3788;49.902;8.590;2023-08-08T14:30:13;2.03;;;1.17;;
7493;SDS011;3788;49.902;8.590;2023-08-08T14:32:43;2.03;;;1.33;;
7493;SDS011;3788;49.902;8.590;2023-08-08T14:35:10;2.67;;;1.17;;
7493;SDS011;3788;49.902;8.590;2023-08-08T14:37:37;1.60;;;1.00;;
7493;SDS011;3788;49.902;8.590;2023-08-08T14:40:05;0.90;;;0.90;;
7493;SDS011;3788;49.902;8.590;2023-08-08T14:42:32;1.30;;;1.07;;
7493;SDS011;3788;49.902;8.590;2023-08-08T14:44:59;1.27;;;0.80;;
7493;SDS011;3788;49.902;8.590;2023-08-08T14:47:25;1.40;;;1.13;;
7493;SDS011;3788;49.902;8.590;2023-08-08T14:49:53;1.90;;;1.20;;
7493;SDS011;3788;49.902;8.590;2023-08-08T14:52:20;4.73;;;1.20;;
7493;SDS011;3788;49.902;8.590;2023-08-08T14:54:47;2.93;;;1.30;;
7493;SDS011;3788;49.902;8.590;2023-08-08T14:57:13;1.63;;;1.20;;
7493;SDS011;3788;49.902;8.590;2023-08-08T14:59:40;2.43;;;1.20;;
7493;SDS011;3788;49.902;8.590;2023-08-08T15:02:07;1.73;;;1.13;;
7493;SDS011;3788;49.902;8.590;2023-08-08T15:04:34;2.17;;;0.90;;
7493;SDS011;3788;49.902;8.590;2023-08-08T15:07:02;1.20;;;1.10;;
7493;SDS011;3788;49.902;8.590;2023-08-08T15:09:29;3.00;;;1.33;;
7493;SDS011;3788;49.902;8.590;2023-08-08T15:11:56;1.87;;;1.10;;
7493;SDS011;3788;49.902;8.590;2023-08-08T15:14:22;3.20;;;1.23;;
7493;SDS011;3788;49.902;8.590;2023-08-08T15:16:51;3.03;;;1.10;;